Eva Schulte — 9V8141 — position and weather

sailwx.info

Track history (hours):
 
Tides and Currents Weather Stations Pressure Air Temp Water Temp Dewpoint Dewpoint Depression Visibility Wind Speed Wind Dir Waves Ship Positions

Eva Schulte

Last reported at 2017-Dec-02 23:47 UTC. Time now 2017-Dec-12 16:03 UTC.
Position N 28°40' W 094°20'.
Warning: this ship's position is 9 days out of date.

Length 145 m; draft 9.2 m.

Type: Tanker. MMSI: 564739000.

Date/timePositionNaut miles runAvg speedWind from/ knotsBaromVisibWave heightAir tempDewpointWater temp
2017-Dec-02 23:47N 28°40' W 094°20'912.2
2017-Dec-02 23:02N 28°40' W 094°30'112.2
2017-Dec-02 22:58N 28°40' W 094°31'42 2.2
2017-Dec-02 04:11N 29°21' W 094°44'510.3
2017-Dec-02 03:43N 29°23' W 094°49'311.3
2017-Dec-02 03:30N 29°25' W 094°50'511.0
2017-Dec-02 03:00N 29°30' W 094°53'611.1
2017-Dec-02 02:30N 29°35' W 094°56'511.0
2017-Dec-02 02:00N 29°40' W 094°59'4 7.3
2017-Dec-02 01:25N 29°43' W 095°01'2 3.9
2017-Dec-02 01:00N 29°44' W 095°03'0 0.0
2017-Dec-01 02:40N 29°44' W 095°03'0 0.0
2017-Dec-01 02:30N 29°44' W 095°03'2 3.3
2017-Dec-01 02:00N 29°44' W 095°01'4 7.6
2017-Dec-01 01:30N 29°41' W 094°59'510.4
2017-Dec-01 01:00N 29°36' W 094°57'612.6
2017-Dec-01 00:30N 29°30' W 094°52'713.0
2017-Nov-30 23:56N 29°24' W 094°49'12 0.7
2017-Nov-30 07:27N 29°15' W 094°39'  
Track history (hours):
 
Tides and Currents Weather Stations Pressure Air Temp Water Temp Dewpoint Dewpoint Depression Visibility Wind Speed Wind Dir Waves Ship Positions

Eva Schulte

Last reported at 2017-Dec-02 23:47 UTC. Time now 2017-Dec-12 16:03 UTC.
Position N 28°40' W 094°20'.
Warning: this ship's position is 9 days out of date.

Length 145 m; draft 9.2 m.

Type: Tanker. MMSI: 564739000.

Date/timePositionNaut miles runAvg speedWind from/ knotsBaromVisibWave heightAir tempDewpointWater temp
2017-Dec-02 23:47N 28°40' W 094°20'912.2
2017-Dec-02 23:02N 28°40' W 094°30'112.2
2017-Dec-02 22:58N 28°40' W 094°31'42 2.2
2017-Dec-02 04:11N 29°21' W 094°44'510.3
2017-Dec-02 03:43N 29°23' W 094°49'311.3
2017-Dec-02 03:30N 29°25' W 094°50'511.0
2017-Dec-02 03:00N 29°30' W 094°53'611.1
2017-Dec-02 02:30N 29°35' W 094°56'511.0
2017-Dec-02 02:00N 29°40' W 094°59'4 7.3
2017-Dec-02 01:25N 29°43' W 095°01'2 3.9
2017-Dec-02 01:00N 29°44' W 095°03'0 0.0
2017-Dec-01 02:40N 29°44' W 095°03'0 0.0
2017-Dec-01 02:30N 29°44' W 095°03'2 3.3
2017-Dec-01 02:00N 29°44' W 095°01'4 7.6
2017-Dec-01 01:30N 29°41' W 094°59'510.4
2017-Dec-01 01:00N 29°36' W 094°57'612.6
2017-Dec-01 00:30N 29°30' W 094°52'713.0
2017-Nov-30 23:56N 29°24' W 094°49'12 0.7
2017-Nov-30 07:27N 29°15' W 094°39'  

Dump ship's entire track history